Keith, Illinois
Current Conditions -  °F | °C
As of 3:55 AM on Friday 31 Oct 2014 (Local Time) from KFOA Reporting Station
Clear Clear  
Wind Chill: 46°   Ceiling: Unl
Heat Index: 46°   Visibility: 7mi
Dew Point: 45°   Wind: 3mph
Humidity: 95%   Direction: 310°NW
Pressure: 30.04"   Gusts: NA
Location:  38.5816°N, 88.4678°W
Report Text: KFOA 310855Z AUTO 31003KT 7SM CLR 08/07 A3004 RMK AO2 T00800073
Loading
Personal Weather Stations






























Interactive Weather Map
Tropical Storm Tracking
New forecast layout! Learn more

10-Day Weather Forecast

Advertisements
Track Severe Weather on mobile